PER weather

Perth International Airport
Perth, Western Australia, Australia

Public forecast

Using degrees Celsius for public forecast. Weather courtesy of forecast.io.

METAR (pilot weather report)

Retrieved 2018/10/17 18:00 UTC (16 minutes ago):

YPPH 171800Z 28008KT 9999 -SHRA FEW010 BKN030 14/13 Q1005 FM1830 26014G24KT 9999 -SHRA BKN022 INTER 1800/2100 29020G30KT 3000 SHRA BKN010

TAF (pilot weather forecast)

Retrieved 2018/10/17 18:00 UTC (16 minutes ago):

TAF YPPH 171612Z 1718/1824 27017G27KT 9999 -SHRA BKN025 FM180000 26020G30KT 9999 -SHRA SCT030 FM181000 23012KT 9999 -SHRA SCT030 INTER 1718/1815 29025G35KT 3000 SHRA BKN010 PROB30 INTER 1803/1809 26030G40KT 2000 TSRA SCT010 FEW030CB